Gurnee, Illinois
Current Conditions -  °F | °C
As of 8:55 PM on Sunday 23 Nov 2014 (Local Time) from KUGN Reporting Station
Moderate Rain Moderate Rain  
Wind Chill: 44°   Ceiling: 200
Heat Index: 46°   Visibility: 2.5mi
Dew Point: 46°   Wind: 5mph
Humidity: 100%   Direction: 100°E
Pressure: 29.22"   Gusts: NA
Location:  42.36°N, 87.91°W
Report Text: KUGN 240255Z AUTO 10004KT 2 1/2SM RA BR OVC002 08/08 A2922 RMK AO2 SLP895 P0011 60032 T00780078 58055
Loading
Personal Weather Stations






























Interactive Weather Map New forecast layout! Learn more

10-Day Weather Forecast

Advertisements
Track Severe Weather on mobile